Decoded Metar for MPMG (PANAMA in PANAMA) (IATA:PAC) | Meteo·Mobile Aviation Weather
aviador You're here:

MPMG Decoded Metar

PANAMA in PANAMA
Report Time2019-01-18 11:00:00
UTC Time2019-01-18 11:58:08
Flight Rules vfr VFR
Wind330° at 06 kt
W.Decomp.*RWY 36: 5.3 kt HW 2.8 kt LCW
W.Rank330° ranks 2
Current wind is below 330° avg. (6.1)
Visibility9999 m
Phenomena:N/A
Clouds:Few 020 Hf
Expected CloudBase > 1,200 ft AGL from Temp-Dew spread
CeilingNone
Temp25°C (ISA +10)
Dew Point22°C (83% RH)
QNH1012 hPa
Density Alt1,591 ft
Elevation43 ft
Report Wrong Elevation
Raw Report
MPMG 181100Z 33006KT 9999 FEW020 25/22 Q1012 NOSIG=

Extra information for MPMG:More info

Metar Taf Metar & Taf Last 4 Metars F.Rules Stats Wind Profile Meteogram Temp Stats Airport Information Weather charts Add Link Nearby VenuesMetar ALERT Operation Metar Decoded Social comments